Time;durP1;ratioP1;P1;durP2;ratioP2;P2;SDS_P1;SDS_P2;PMS_P1;PMS_P2;Temp;Humidity;BMP_temperature;BMP_pressure;BME280_temperature;BME280_humidity;BME280_pressure;Samples;Min_cycle;Max_cycle;Signal;HPM_P1;HPM_P2
2023/04/08 00:02:25;;;;;;;21.07;10.03;;;;;;;;;;4941850;28;20380;-70
2023/04/08 00:04:53;;;;;;;21.97;9.03;;;;;;;;;;4944040;28;20245;-70
2023/04/08 00:07:19;;;;;;;19.17;9.70;;;;;;;;;;4943622;28;20226;-69
2023/04/08 00:09:45;;;;;;;16.77;8.27;;;;;;;;;;4945688;28;20214;-70
2023/04/08 00:12:11;;;;;;;17.03;9.23;;;;;;;;;;4946441;28;20214;-70
2023/04/08 00:14:40;;;;;;;18.43;8.93;;;;;;;;;;4941965;28;20302;-69
2023/04/08 00:17:06;;;;;;;16.67;8.20;;;;;;;;;;4943875;28;20723;-70
2023/04/08 00:19:33;;;;;;;18.60;8.97;;;;;;;;;;4943925;28;20965;-68
2023/04/08 00:22:00;;;;;;;20.70;8.53;;;;;;;;;;4943160;28;20248;-70
2023/04/08 00:24:31;;;;;;;17.43;8.37;;;;;;;;;;4943326;28;20246;-69
2023/04/08 00:26:57;;;;;;;17.03;8.00;;;;;;;;;;4944982;28;20274;-69
2023/04/08 00:29:23;;;;;;;15.80;8.57;;;;;;;;;;4947283;28;20503;-70
2023/04/08 00:31:50;;;;;;;15.87;8.33;;;;;;;;;;4958814;28;20788;-70
2023/04/08 00:34:16;;;;;;;14.43;7.67;;;;;;;;;;4943154;28;20276;-70
2023/04/08 00:36:42;;;;;;;15.70;8.20;;;;;;;;;;4943613;28;20237;-68
2023/04/08 00:39:11;;;;;;;13.97;7.90;;;;;;;;;;4944043;28;20343;-68
2023/04/08 00:41:37;;;;;;;11.43;7.20;;;;;;;;;;4943121;28;20794;-69
2023/04/08 00:44:03;;;;;;;15.00;7.70;;;;;;;;;;4963637;28;20299;-70
2023/04/08 00:46:35;;;;;;;14.00;7.77;;;;;;;;;;4941649;28;20246;-69
2023/04/08 00:49:02;;;;;;;18.00;8.27;;;;;;;;;;4945001;28;20211;-70
2023/04/08 00:51:32;;;;;;;14.20;7.03;;;;;;;;;;4943851;28;20319;-69
2023/04/08 00:54:00;;;;;;;15.73;7.47;;;;;;;;;;4944346;28;20218;-69
2023/04/08 00:56:32;;;;;;;13.27;7.30;;;;;;;;;;4943825;28;21114;-69
2023/04/08 00:59:00;;;;;;;14.77;6.87;;;;;;;;;;4944509;28;20221;-69
2023/04/08 01:01:31;;;;;;;14.30;7.80;;;;;;;;;;4943392;28;20202;-70
2023/04/08 01:04:01;;;;;;;14.37;8.47;;;;;;;;;;4942248;28;20814;-68
2023/04/08 01:06:56;;;;;;;16.60;7.60;;;;;;;;;;4944144;28;20276;-70
2023/04/08 01:09:24;;;;;;;11.90;7.07;;;;;;;;;;4943809;28;20755;-70
2023/04/08 01:11:53;;;;;;;12.33;7.73;;;;;;;;;;4943894;28;20212;-70
2023/04/08 01:14:20;;;;;;;13.50;7.30;;;;;;;;;;4949256;28;20734;-69
2023/04/08 01:16:47;;;;;;;11.43;7.10;;;;;;;;;;4946863;28;20210;-70
2023/04/08 01:19:17;;;;;;;14.27;7.20;;;;;;;;;;4935189;28;20429;-69
2023/04/08 01:21:43;;;;;;;15.20;8.10;;;;;;;;;;4944076;28;20207;-70
2023/04/08 01:24:16;;;;;;;13.70;7.57;;;;;;;;;;4942364;28;20219;-69
2023/04/08 01:26:46;;;;;;;13.60;7.47;;;;;;;;;;4943710;28;20234;-69
2023/04/08 01:29:13;;;;;;;15.67;8.47;;;;;;;;;;4940822;28;20210;-70
2023/04/08 01:31:41;;;;;;;16.73;8.43;;;;;;;;;;4945753;28;20510;-69
2023/04/08 01:34:08;;;;;;;14.27;8.57;;;;;;;;;;4941917;28;21321;-70
2023/04/08 01:36:35;;;;;;;13.87;8.50;;;;;;;;;;4942942;28;20232;-70
2023/04/08 01:39:02;;;;;;;13.23;7.90;;;;;;;;;;4957154;28;20273;-69
2023/04/08 01:41:30;;;;;;;16.57;8.13;;;;;;;;;;4943418;28;20218;-68
2023/04/08 01:43:59;;;;;;;16.50;8.53;;;;;;;;;;4945718;28;20229;-68
2023/04/08 01:46:26;;;;;;;13.70;8.67;;;;;;;;;;4940710;28;20282;-70
2023/04/08 01:48:54;;;;;;;16.30;9.00;;;;;;;;;;4940887;28;20210;-69
2023/04/08 01:51:21;;;;;;;14.33;8.70;;;;;;;;;;4941105;28;20210;-69
2023/04/08 01:53:47;;;;;;;15.43;8.57;;;;;;;;;;4945482;28;20220;-70
2023/04/08 01:56:15;;;;;;;17.00;9.03;;;;;;;;;;4942713;28;20474;-69
2023/04/08 01:58:42;;;;;;;17.20;9.77;;;;;;;;;;4942269;28;20213;-68
2023/04/08 02:01:14;;;;;;;14.90;8.17;;;;;;;;;;4958359;28;20271;-69
2023/04/08 02:03:42;;;;;;;16.90;9.73;;;;;;;;;;4939660;28;20228;-70
2023/04/08 02:06:08;;;;;;;18.07;8.80;;;;;;;;;;4942742;28;20231;-70
2023/04/08 02:08:35;;;;;;;19.00;9.77;;;;;;;;;;4945241;28;20219;-70
2023/04/08 02:11:01;;;;;;;17.83;9.17;;;;;;;;;;4961760;28;20221;-70
2023/04/08 02:13:34;;;;;;;18.00;9.57;;;;;;;;;;4942426;28;20221;-69
2023/04/08 02:16:04;;;;;;;16.23;9.10;;;;;;;;;;4941590;28;21206;-70
2023/04/08 02:18:36;;;;;;;16.50;9.47;;;;;;;;;;4944366;28;20914;-70
2023/04/08 02:21:06;;;;;;;19.17;10.03;;;;;;;;;;4941137;28;20199;-70
2023/04/08 02:23:37;;;;;;;19.23;10.33;;;;;;;;;;4942277;28;20282;-70
2023/04/08 02:26:06;;;;;;;22.97;11.70;;;;;;;;;;4943213;28;20864;-70
2023/04/08 02:28:33;;;;;;;20.13;11.40;;;;;;;;;;4938558;28;20210;-70
2023/04/08 02:31:00;;;;;;;24.33;12.13;;;;;;;;;;4942586;28;20225;-70
2023/04/08 02:33:34;;;;;;;23.63;11.77;;;;;;;;;;4942874;28;21233;-69
2023/04/08 02:36:26;;;;;;;22.73;12.60;;;;;;;;;;4938101;28;20836;-70
2023/04/08 02:38:54;;;;;;;23.00;12.10;;;;;;;;;;4945471;28;20305;-70
2023/04/08 02:41:21;;;;;;;25.40;12.97;;;;;;;;;;4942563;28;20972;-70
2023/04/08 02:43:47;;;;;;;24.70;12.13;;;;;;;;;;4961328;28;20237;-69
2023/04/08 02:46:14;;;;;;;21.20;11.90;;;;;;;;;;4943055;28;21716;-69
2023/04/08 02:48:40;;;;;;;21.67;12.03;;;;;;;;;;4949948;28;20210;-69
2023/04/08 02:51:08;;;;;;;24.53;12.87;;;;;;;;;;4941892;28;20217;-70
2023/04/08 02:53:37;;;;;;;21.37;11.70;;;;;;;;;;4947050;28;20575;-69
2023/04/08 02:56:05;;;;;;;21.90;12.43;;;;;;;;;;4959815;28;20226;-70
2023/04/08 02:58:31;;;;;;;23.20;12.60;;;;;;;;;;4944139;28;20216;-70
2023/04/08 03:00:57;;;;;;;22.33;11.37;;;;;;;;;;4945939;28;20352;-70
2023/04/08 03:03:28;;;;;;;20.97;12.10;;;;;;;;;;4945738;28;20273;-69
2023/04/08 03:05:56;;;;;;;21.57;11.57;;;;;;;;;;4944286;28;20724;-70
2023/04/08 03:08:23;;;;;;;23.43;11.40;;;;;;;;;;4947153;28;20575;-69
2023/04/08 03:10:49;;;;;;;27.63;12.90;;;;;;;;;;4944245;28;20225;-69
2023/04/08 03:13:17;;;;;;;22.60;12.60;;;;;;;;;;4947576;28;20217;-69
2023/04/08 03:15:43;;;;;;;29.03;13.17;;;;;;;;;;4943187;28;20288;-69
2023/04/08 03:18:10;;;;;;;23.67;12.03;;;;;;;;;;4946862;28;20221;-68
2023/04/08 03:20:36;;;;;;;25.30;12.80;;;;;;;;;;4934181;28;20210;-70
2023/04/08 03:23:02;;;;;;;25.47;13.10;;;;;;;;;;4947405;28;20304;-69
2023/04/08 03:25:29;;;;;;;29.90;12.70;;;;;;;;;;4943781;28;20234;-70
2023/04/08 03:27:55;;;;;;;23.60;12.53;;;;;;;;;;4946862;28;20269;-69
2023/04/08 03:30:22;;;;;;;29.97;13.80;;;;;;;;;;4937763;28;20261;-69
2023/04/08 03:32:49;;;;;;;28.03;13.07;;;;;;;;;;4942742;28;20217;-69
2023/04/08 03:35:16;;;;;;;26.73;13.43;;;;;;;;;;4943918;28;20226;-68
2023/04/08 03:37:43;;;;;;;26.83;13.43;;;;;;;;;;4944839;28;20540;-70
2023/04/08 03:40:10;;;;;;;28.63;12.97;;;;;;;;;;4945359;28;20210;-68
2023/04/08 03:42:36;;;;;;;25.20;12.90;;;;;;;;;;4942438;28;20636;-69
2023/04/08 03:45:02;;;;;;;33.00;14.23;;;;;;;;;;4947654;28;20234;-70
2023/04/08 03:47:32;;;;;;;30.20;15.10;;;;;;;;;;4944819;28;20226;-69
2023/04/08 03:49:58;;;;;;;31.03;14.70;;;;;;;;;;4941619;28;20264;-69
2023/04/08 03:52:25;;;;;;;26.30;12.70;;;;;;;;;;4944894;28;20708;-69
2023/04/08 03:54:51;;;;;;;25.40;14.20;;;;;;;;;;4943144;28;20258;-68
2023/04/08 03:57:18;;;;;;;28.10;13.87;;;;;;;;;;4944012;28;20967;-69
2023/04/08 03:59:44;;;;;;;30.67;14.47;;;;;;;;;;4944044;28;20226;-69
2023/04/08 04:02:10;;;;;;;28.13;14.57;;;;;;;;;;4946496;28;20217;-69
2023/04/08 04:04:38;;;;;;;29.43;14.47;;;;;;;;;;4942364;28;20233;-68
2023/04/08 04:07:04;;;;;;;31.77;14.40;;;;;;;;;;4943080;28;21882;-70
2023/04/08 04:09:32;;;;;;;32.03;15.27;;;;;;;;;;4946003;28;20232;-69
2023/04/08 04:11:58;;;;;;;36.33;14.70;;;;;;;;;;4945150;28;20221;-69
2023/04/08 04:14:24;;;;;;;32.27;15.97;;;;;;;;;;4960517;28;20229;-69
2023/04/08 04:16:51;;;;;;;31.50;16.30;;;;;;;;;;4962339;28;20518;-68
2023/04/08 04:19:17;;;;;;;32.97;15.67;;;;;;;;;;4959102;28;20220;-69
2023/04/08 04:21:45;;;;;;;38.60;16.50;;;;;;;;;;4958935;28;20292;-69
2023/04/08 04:24:12;;;;;;;33.40;16.03;;;;;;;;;;4956575;28;20221;-70
2023/04/08 04:26:39;;;;;;;31.23;16.17;;;;;;;;;;4959809;28;20674;-70
2023/04/08 04:29:06;;;;;;;35.73;16.73;;;;;;;;;;4955386;28;20212;-69
2023/04/08 04:31:32;;;;;;;34.13;17.07;;;;;;;;;;4960994;28;20213;-68
2023/04/08 04:33:58;;;;;;;34.77;16.47;;;;;;;;;;4951271;28;20221;-69
2023/04/08 04:36:25;;;;;;;37.03;17.63;;;;;;;;;;4957737;28;20232;-69
2023/04/08 04:38:52;;;;;;;32.60;16.37;;;;;;;;;;4952873;28;21022;-69
2023/04/08 04:41:20;;;;;;;37.07;17.63;;;;;;;;;;4959719;28;20647;-70
2023/04/08 04:43:46;;;;;;;33.13;16.50;;;;;;;;;;4962321;28;20225;-70
2023/04/08 04:46:13;;;;;;;32.90;17.47;;;;;;;;;;4960833;28;20242;-69
2023/04/08 04:48:39;;;;;;;34.90;17.63;;;;;;;;;;4962234;28;20675;-70
2023/04/08 04:51:06;;;;;;;31.83;15.50;;;;;;;;;;4958817;28;20225;-69
2023/04/08 04:53:32;;;;;;;36.37;18.03;;;;;;;;;;4963196;28;20608;-69
2023/04/08 04:56:01;;;;;;;33.30;17.00;;;;;;;;;;4963265;28;20599;-69
2023/04/08 04:58:28;;;;;;;34.63;17.30;;;;;;;;;;4963946;28;20257;-70
2023/04/08 05:00:55;;;;;;;38.77;18.77;;;;;;;;;;4960695;28;20206;-70
2023/04/08 05:03:21;;;;;;;49.87;24.97;;;;;;;;;;4962428;28;20236;-69
2023/04/08 05:05:50;;;;;;;34.17;17.53;;;;;;;;;;4972912;23;20233;-70
2023/04/08 05:08:16;;;;;;;32.77;17.23;;;;;;;;;;4979225;28;20715;-70
2023/04/08 05:10:45;;;;;;;35.83;19.70;;;;;;;;;;4976152;28;20287;-71
2023/04/08 05:13:12;;;;;;;35.77;16.70;;;;;;;;;;4981649;28;20256;-70
2023/04/08 05:15:39;;;;;;;33.57;17.17;;;;;;;;;;4974167;28;20234;-70
2023/04/08 05:18:05;;;;;;;34.80;17.17;;;;;;;;;;4963273;28;20210;-71
2023/04/08 05:20:31;;;;;;;31.93;16.13;;;;;;;;;;4959598;28;20214;-71
2023/04/08 05:22:57;;;;;;;32.33;17.60;;;;;;;;;;4978294;28;20210;-71
2023/04/08 05:25:24;;;;;;;30.07;15.83;;;;;;;;;;4963333;28;20247;-71
2023/04/08 05:27:50;;;;;;;34.83;16.93;;;;;;;;;;4962772;28;20646;-70
2023/04/08 05:30:18;;;;;;;31.40;17.00;;;;;;;;;;4965088;28;20726;-71
2023/04/08 05:32:46;;;;;;;29.83;15.67;;;;;;;;;;4963063;28;20212;-70
2023/04/08 05:35:12;;;;;;;28.43;15.67;;;;;;;;;;4959870;28;20230;-71
2023/04/08 05:37:38;;;;;;;31.73;18.63;;;;;;;;;;4959578;28;20620;-70
2023/04/08 05:40:05;;;;;;;34.50;18.13;;;;;;;;;;4965658;28;20224;-71
2023/04/08 05:42:32;;;;;;;33.53;17.73;;;;;;;;;;4967404;28;20214;-70
2023/04/08 05:44:58;;;;;;;33.47;18.17;;;;;;;;;;4956914;28;20522;-70
2023/04/08 05:47:32;;;;;;;35.63;17.57;;;;;;;;;;4967110;28;20229;-70
2023/04/08 05:49:58;;;;;;;31.83;17.67;;;;;;;;;;4958367;28;20201;-71
2023/04/08 05:52:25;;;;;;;31.03;16.73;;;;;;;;;;4952148;28;20206;-71
2023/04/08 05:54:56;;;;;;;36.43;18.13;;;;;;;;;;4958736;28;20541;-71
2023/04/08 05:57:22;;;;;;;35.27;18.50;;;;;;;;;;4966098;28;20680;-71
2023/04/08 05:59:48;;;;;;;31.57;16.63;;;;;;;;;;4961794;28;20710;-71
2023/04/08 06:02:14;;;;;;;32.07;17.27;;;;;;;;;;4949475;28;20214;-71
2023/04/08 06:04:42;;;;;;;34.53;17.63;;;;;;;;;;4957274;28;20405;-71
2023/04/08 06:07:08;;;;;;;29.33;16.27;;;;;;;;;;4961178;28;20237;-70
2023/04/08 06:09:36;;;;;;;32.60;16.67;;;;;;;;;;4964385;28;20579;-70
2023/04/08 06:12:02;;;;;;;37.60;17.57;;;;;;;;;;4962858;28;20213;-70
2023/04/08 06:14:28;;;;;;;36.43;17.40;;;;;;;;;;4952188;28;20197;-71
2023/04/08 06:16:55;;;;;;;36.53;16.90;;;;;;;;;;4960941;28;20485;-70
2023/04/08 06:19:22;;;;;;;31.33;16.80;;;;;;;;;;4966323;28;20579;-71
2023/04/08 06:21:50;;;;;;;33.60;17.17;;;;;;;;;;4966088;28;20625;-70
2023/04/08 06:24:16;;;;;;;35.83;18.17;;;;;;;;;;4965250;28;20599;-70
2023/04/08 06:26:44;;;;;;;33.33;17.60;;;;;;;;;;4962131;28;20285;-71
2023/04/08 06:29:10;;;;;;;32.83;17.30;;;;;;;;;;4963247;28;20560;-71
2023/04/08 06:31:37;;;;;;;34.03;16.67;;;;;;;;;;4960981;28;20570;-71
2023/04/08 06:34:03;;;;;;;32.57;18.03;;;;;;;;;;4955253;28;20198;-71
2023/04/08 06:36:30;;;;;;;34.17;17.53;;;;;;;;;;4964772;28;20233;-70
2023/04/08 06:38:57;;;;;;;38.83;17.70;;;;;;;;;;4964473;28;20212;-71
2023/04/08 06:41:23;;;;;;;33.67;18.10;;;;;;;;;;4964494;28;20585;-70
2023/04/08 06:43:50;;;;;;;36.03;17.23;;;;;;;;;;4962419;28;20288;-71
2023/04/08 06:46:16;;;;;;;38.53;19.20;;;;;;;;;;4965257;28;20750;-70
2023/04/08 06:48:42;;;;;;;36.47;17.87;;;;;;;;;;4967389;28;20209;-71
2023/04/08 06:51:08;;;;;;;34.83;17.83;;;;;;;;;;4958380;28;20194;-71
2023/04/08 06:53:34;;;;;;;35.83;18.93;;;;;;;;;;4964046;28;20197;-71
2023/04/08 06:56:02;;;;;;;35.63;18.50;;;;;;;;;;4963213;28;20229;-70
2023/04/08 06:58:31;;;;;;;35.30;17.70;;;;;;;;;;4959471;28;20239;-70
2023/04/08 07:00:59;;;;;;;36.93;17.77;;;;;;;;;;4966327;28;20289;-71
2023/04/08 07:03:25;;;;;;;35.90;18.43;;;;;;;;;;4963618;28;20257;-70
2023/04/08 07:05:52;;;;;;;35.60;18.90;;;;;;;;;;4954694;28;20267;-71
2023/04/08 07:08:19;;;;;;;35.93;18.10;;;;;;;;;;4953341;28;20221;-70
2023/04/08 07:10:45;;;;;;;41.80;19.60;;;;;;;;;;4957940;28;20217;-71
2023/04/08 07:13:13;;;;;;;45.47;20.67;;;;;;;;;;4955842;28;20214;-71
2023/04/08 07:15:42;;;;;;;38.57;19.60;;;;;;;;;;4952787;28;20230;-71
2023/04/08 07:18:08;;;;;;;36.90;19.73;;;;;;;;;;4960567;28;20203;-71
2023/04/08 07:20:37;;;;;;;39.03;19.27;;;;;;;;;;4947332;28;20588;-71
2023/04/08 07:23:03;;;;;;;41.57;19.90;;;;;;;;;;4961980;28;20217;-70
2023/04/08 07:25:29;;;;;;;42.10;19.73;;;;;;;;;;4967626;28;20671;-71
2023/04/08 07:27:56;;;;;;;36.27;17.43;;;;;;;;;;4963211;28;20297;-71
2023/04/08 07:30:23;;;;;;;40.50;18.97;;;;;;;;;;4968924;28;20233;-71
2023/04/08 07:32:49;;;;;;;41.17;19.63;;;;;;;;;;4955559;28;20579;-70
2023/04/08 07:35:22;;;;;;;43.10;20.60;;;;;;;;;;4952978;28;20238;-70
2023/04/08 07:37:49;;;;;;;40.03;18.80;;;;;;;;;;4953041;28;20217;-70
2023/04/08 07:40:16;;;;;;;40.20;20.23;;;;;;;;;;4960685;28;20268;-70
2023/04/08 07:42:44;;;;;;;41.33;18.53;;;;;;;;;;4960279;28;20287;-71
2023/04/08 07:45:10;;;;;;;44.50;19.30;;;;;;;;;;4960435;28;20225;-70
2023/04/08 07:47:38;;;;;;;39.90;20.03;;;;;;;;;;4962865;28;20201;-70
2023/04/08 07:50:05;;;;;;;40.67;19.67;;;;;;;;;;4948945;28;20221;-70
2023/04/08 07:52:32;;;;;;;30.47;16.53;;;;;;;;;;4956318;28;20207;-71
2023/04/08 07:54:58;;;;;;;36.30;17.80;;;;;;;;;;4957989;28;20209;-71
2023/04/08 07:57:25;;;;;;;43.33;20.13;;;;;;;;;;4954926;28;20206;-70
2023/04/08 07:59:51;;;;;;;41.23;19.23;;;;;;;;;;4955701;28;20198;-71
2023/04/08 08:02:17;;;;;;;38.77;19.33;;;;;;;;;;4950561;28;22146;-71
2023/04/08 08:04:45;;;;;;;41.03;17.93;;;;;;;;;;4946875;28;20578;-70
2023/04/08 08:07:11;;;;;;;35.37;17.53;;;;;;;;;;4959035;28;20226;-71
2023/04/08 08:09:37;;;;;;;40.17;17.77;;;;;;;;;;4961669;28;20206;-71
2023/04/08 08:12:04;;;;;;;36.27;15.80;;;;;;;;;;4966475;28;20216;-70
2023/04/08 08:14:34;;;;;;;31.90;16.33;;;;;;;;;;4968644;28;20209;-71
2023/04/08 08:17:00;;;;;;;34.73;18.20;;;;;;;;;;4958962;28;20218;-71
2023/04/08 08:19:53;;;;;;;35.87;17.37;;;;;;;;;;4949014;28;20257;-71
2023/04/08 08:22:20;;;;;;;35.07;18.23;;;;;;;;;;4954854;28;20207;-70
2023/04/08 08:24:46;;;;;;;31.03;17.80;;;;;;;;;;4952140;28;20214;-70
2023/04/08 08:27:12;;;;;;;33.17;17.90;;;;;;;;;;4952536;28;20258;-71
2023/04/08 08:29:38;;;;;;;30.67;18.00;;;;;;;;;;4957154;28;20214;-71
2023/04/08 08:32:05;;;;;;;27.07;15.40;;;;;;;;;;4960054;28;20217;-71
2023/04/08 08:34:32;;;;;;;24.07;14.17;;;;;;;;;;4958590;28;20210;-70
2023/04/08 08:36:59;;;;;;;25.37;14.53;;;;;;;;;;4952952;28;20721;-71
2023/04/08 08:39:26;;;;;;;13.50;9.80;;;;;;;;;;4966653;28;20250;-70
2023/04/08 08:41:55;;;;;;;16.10;10.37;;;;;;;;;;4961885;28;20257;-70
2023/04/08 08:44:21;;;;;;;15.17;10.07;;;;;;;;;;4967347;28;20219;-70
2023/04/08 08:46:48;;;;;;;14.37;9.77;;;;;;;;;;4965807;28;20227;-71
2023/04/08 08:49:14;;;;;;;15.73;9.27;;;;;;;;;;4961299;28;20234;-71
2023/04/08 08:51:41;;;;;;;13.07;8.60;;;;;;;;;;4962346;28;20212;-70
2023/04/08 08:54:08;;;;;;;12.57;8.87;;;;;;;;;;4965095;28;20202;-71
2023/04/08 08:56:34;;;;;;;12.03;8.57;;;;;;;;;;4967261;28;20333;-71
2023/04/08 08:59:01;;;;;;;14.30;9.47;;;;;;;;;;4965598;28;20554;-71
2023/04/08 09:01:52;;;;;;;13.97;8.73;;;;;;;;;;4964509;28;20704;-71
2023/04/08 09:04:19;;;;;;;12.60;8.70;;;;;;;;;;4967574;28;20750;-71
2023/04/08 09:06:46;;;;;;;14.00;7.83;;;;;;;;;;4964755;28;20231;-71
2023/04/08 09:09:14;;;;;;;10.17;6.87;;;;;;;;;;4961509;28;20674;-71
2023/04/08 09:11:41;;;;;;;12.63;7.97;;;;;;;;;;4968917;28;20214;-71
2023/04/08 09:14:17;;;;;;;14.43;8.07;;;;;;;;;;4964828;28;20207;-70
2023/04/08 09:16:46;;;;;;;12.27;7.80;;;;;;;;;;4967384;28;20234;-70
2023/04/08 09:19:12;;;;;;;10.63;7.13;;;;;;;;;;4962861;28;20203;-70
2023/04/08 09:21:40;;;;;;;10.37;6.87;;;;;;;;;;4962514;28;21792;-71
2023/04/08 09:24:06;;;;;;;11.63;7.17;;;;;;;;;;4963700;28;20201;-70
2023/04/08 09:26:34;;;;;;;9.80;5.97;;;;;;;;;;4968352;28;20226;-71
2023/04/08 09:29:01;;;;;;;7.53;5.97;;;;;;;;;;4961324;28;20207;-70
2023/04/08 09:31:28;;;;;;;8.83;6.33;;;;;;;;;;4963666;28;20207;-70
2023/04/08 09:33:55;;;;;;;9.77;6.43;;;;;;;;;;4959617;28;20560;-70
2023/04/08 09:36:21;;;;;;;8.27;5.77;;;;;;;;;;4963402;28;20229;-71
2023/04/08 09:38:48;;;;;;;8.20;5.03;;;;;;;;;;4970067;28;20209;-70
2023/04/08 09:41:15;;;;;;;11.57;6.93;;;;;;;;;;4961399;28;20206;-70
2023/04/08 09:44:08;;;;;;;9.10;5.93;;;;;;;;;;4965309;28;20212;-70
2023/04/08 09:46:39;;;;;;;10.63;6.43;;;;;;;;;;4965464;28;20406;-70
2023/04/08 09:49:07;;;;;;;12.13;6.53;;;;;;;;;;4963000;28;20201;-71
2023/04/08 09:51:36;;;;;;;10.57;6.83;;;;;;;;;;4965890;28;20210;-71
2023/04/08 09:54:03;;;;;;;10.57;6.93;;;;;;;;;;4962843;28;20292;-70
2023/04/08 09:56:36;;;;;;;10.97;7.53;;;;;;;;;;4966234;28;20280;-71
2023/04/08 09:59:27;;;;;;;11.13;7.30;;;;;;;;;;4959978;28;20218;-69
2023/04/08 10:01:56;;;;;;;12.00;7.83;;;;;;;;;;4942516;28;20214;-70
2023/04/08 10:04:24;;;;;;;12.60;7.17;;;;;;;;;;4953078;28;20206;-69
2023/04/08 10:06:53;;;;;;;11.27;7.60;;;;;;;;;;4951711;28;20676;-70
2023/04/08 10:09:20;;;;;;;13.50;7.47;;;;;;;;;;4958363;28;20220;-71
2023/04/08 10:11:47;;;;;;;11.23;7.13;;;;;;;;;;4959345;28;20201;-69
2023/04/08 10:14:13;;;;;;;13.50;7.93;;;;;;;;;;4957473;28;20209;-70
2023/04/08 10:16:39;;;;;;;10.07;6.83;;;;;;;;;;4945819;28;20233;-71
2023/04/08 10:19:32;;;;;;;13.03;7.37;;;;;;;;;;4952509;28;20291;-70
2023/04/08 10:21:59;;;;;;;14.97;8.37;;;;;;;;;;4956349;28;20209;-71
2023/04/08 10:24:26;;;;;;;11.60;7.20;;;;;;;;;;4958206;28;20205;-70
2023/04/08 10:26:52;;;;;;;11.00;6.70;;;;;;;;;;4955127;28;20222;-71
2023/04/08 10:29:42;;;;;;;13.10;7.97;;;;;;;;;;4958857;28;20218;-71
2023/04/08 10:32:09;;;;;;;12.13;8.60;;;;;;;;;;4952326;28;20836;-71
2023/04/08 10:34:50;;;;;;;13.53;8.60;;;;;;;;;;4956292;28;20218;-71
2023/04/08 10:37:16;;;;;;;13.90;8.13;;;;;;;;;;4961249;28;20206;-70
2023/04/08 10:39:48;;;;;;;13.57;8.90;;;;;;;;;;4957717;28;20210;-70
2023/04/08 10:42:15;;;;;;;15.17;8.17;;;;;;;;;;4956397;28;20202;-71
2023/04/08 10:44:44;;;;;;;15.70;9.47;;;;;;;;;;4954263;28;20220;-70
2023/04/08 10:47:11;;;;;;;13.97;8.40;;;;;;;;;;4950358;28;20237;-70
2023/04/08 10:49:40;;;;;;;13.93;9.40;;;;;;;;;;4947866;28;20417;-71
2023/04/08 10:52:07;;;;;;;15.70;9.60;;;;;;;;;;4958560;28;20278;-70
2023/04/08 10:54:33;;;;;;;11.43;7.77;;;;;;;;;;4963000;28;20214;-70
2023/04/08 10:56:59;;;;;;;14.30;8.13;;;;;;;;;;4956556;28;20232;-70
2023/04/08 10:59:30;;;;;;;12.87;8.13;;;;;;;;;;4960785;28;20209;-70
2023/04/08 11:01:57;;;;;;;11.40;7.40;;;;;;;;;;4968611;28;20621;-70
2023/04/08 11:04:23;;;;;;;12.57;7.60;;;;;;;;;;4968775;28;20209;-70
2023/04/08 11:06:51;;;;;;;11.20;7.47;;;;;;;;;;4979629;23;20238;-69
2023/04/08 11:09:17;;;;;;;10.43;6.73;;;;;;;;;;4969318;28;20223;-70
2023/04/08 11:11:44;;;;;;;9.67;6.37;;;;;;;;;;4975027;28;20217;-69
2023/04/08 11:14:11;;;;;;;9.87;6.37;;;;;;;;;;4974446;28;20695;-70
2023/04/08 11:16:38;;;;;;;10.60;7.70;;;;;;;;;;4957423;28;20305;-69
2023/04/08 11:19:05;;;;;;;9.63;6.30;;;;;;;;;;4943046;28;21939;-70
2023/04/08 11:21:31;;;;;;;10.53;6.77;;;;;;;;;;4943272;28;20232;-70
2023/04/08 11:23:59;;;;;;;10.23;6.60;;;;;;;;;;4959969;28;20512;-69
2023/04/08 11:26:26;;;;;;;11.33;7.03;;;;;;;;;;4947364;28;20361;-70
2023/04/08 11:28:52;;;;;;;9.13;6.23;;;;;;;;;;4944293;28;20689;-69
2023/04/08 11:31:19;;;;;;;10.30;6.80;;;;;;;;;;4935635;28;20207;-69
2023/04/08 11:33:46;;;;;;;12.43;7.33;;;;;;;;;;4950486;28;20221;-69
2023/04/08 11:36:12;;;;;;;11.83;6.57;;;;;;;;;;4937143;28;20303;-70
2023/04/08 11:38:39;;;;;;;11.07;7.27;;;;;;;;;;4944023;28;20725;-70
2023/04/08 11:41:10;;;;;;;13.90;8.43;;;;;;;;;;4939071;28;20234;-70
2023/04/08 11:43:38;;;;;;;17.27;9.50;;;;;;;;;;4943664;28;20254;-69
2023/04/08 11:46:11;;;;;;;16.63;9.77;;;;;;;;;;4933779;28;21607;-70
2023/04/08 11:48:38;;;;;;;12.97;8.23;;;;;;;;;;4948925;28;20234;-70
2023/04/08 11:51:04;;;;;;;14.13;8.97;;;;;;;;;;4931813;28;21127;-70
2023/04/08 11:53:31;;;;;;;11.33;7.23;;;;;;;;;;4923957;28;20227;-69
2023/04/08 11:55:57;;;;;;;35.70;17.47;;;;;;;;;;4917940;28;20359;-69
2023/04/08 11:58:25;;;;;;;19.73;10.53;;;;;;;;;;4938122;28;20211;-69
2023/04/08 12:00:54;;;;;;;11.53;7.80;;;;;;;;;;4934010;28;20481;-69
2023/04/08 12:03:20;;;;;;;20.17;10.73;;;;;;;;;;4931966;28;20207;-70
2023/04/08 12:05:47;;;;;;;15.57;8.30;;;;;;;;;;4929448;28;20697;-69
2023/04/08 12:08:13;;;;;;;15.97;9.77;;;;;;;;;;4931903;28;20230;-70
2023/04/08 12:10:39;;;;;;;15.73;9.57;;;;;;;;;;4935875;28;20210;-69
2023/04/08 12:13:05;;;;;;;15.23;9.90;;;;;;;;;;4939681;28;20219;-69
2023/04/08 12:15:33;;;;;;;16.27;9.37;;;;;;;;;;4950380;28;20657;-69
2023/04/08 12:17:59;;;;;;;16.67;9.20;;;;;;;;;;4948393;28;20210;-69
2023/04/08 12:20:25;;;;;;;15.07;10.10;;;;;;;;;;4946695;28;20219;-70
2023/04/08 12:22:51;;;;;;;13.43;8.47;;;;;;;;;;4949878;28;20207;-69
2023/04/08 12:25:18;;;;;;;14.33;8.50;;;;;;;;;;4950477;28;20202;-69
2023/04/08 12:27:44;;;;;;;15.50;9.30;;;;;;;;;;4947744;28;20224;-68
2023/04/08 12:30:11;;;;;;;13.37;8.63;;;;;;;;;;4946768;28;20676;-69
2023/04/08 12:32:38;;;;;;;16.30;8.63;;;;;;;;;;4938432;28;20203;-69
2023/04/08 12:35:05;;;;;;;16.83;9.43;;;;;;;;;;4934173;28;20246;-68
2023/04/08 12:37:33;;;;;;;17.23;10.30;;;;;;;;;;4940357;28;20594;-69
2023/04/08 12:39:59;;;;;;;13.23;8.67;;;;;;;;;;4940292;28;20323;-69
2023/04/08 12:42:26;;;;;;;16.97;11.13;;;;;;;;;;4944484;28;20692;-70
2023/04/08 12:44:52;;;;;;;17.43;10.47;;;;;;;;;;4944463;28;20202;-69
2023/04/08 12:47:19;;;;;;;32.00;19.87;;;;;;;;;;4941250;28;20575;-68
2023/04/08 12:49:46;;;;;;;15.10;10.23;;;;;;;;;;4947415;28;20227;-69
2023/04/08 12:52:13;;;;;;;15.70;8.90;;;;;;;;;;4949380;28;20573;-70
2023/04/08 12:54:39;;;;;;;14.13;8.90;;;;;;;;;;4943568;28;20261;-69
2023/04/08 12:57:06;;;;;;;15.97;9.43;;;;;;;;;;4945177;28;20274;-69
2023/04/08 12:59:32;;;;;;;16.27;9.87;;;;;;;;;;4946348;28;20207;-69
2023/04/08 13:01:59;;;;;;;14.87;9.77;;;;;;;;;;4938810;28;20215;-69
2023/04/08 13:04:25;;;;;;;17.20;9.97;;;;;;;;;;4932495;28;20286;-70
2023/04/08 13:06:53;;;;;;;18.40;10.63;;;;;;;;;;4943854;28;20231;-69
2023/04/08 13:09:19;;;;;;;26.67;14.87;;;;;;;;;;4940358;28;20215;-69
2023/04/08 13:11:45;;;;;;;22.40;12.63;;;;;;;;;;4944431;28;20203;-70
2023/04/08 13:14:12;;;;;;;18.00;10.53;;;;;;;;;;4944544;28;20286;-70
2023/04/08 13:16:39;;;;;;;19.23;12.10;;;;;;;;;;4945299;28;20222;-69
2023/04/08 13:19:05;;;;;;;21.43;13.23;;;;;;;;;;4940329;28;20218;-68
2023/04/08 13:21:35;;;;;;;22.23;13.97;;;;;;;;;;4943337;28;20214;-71
2023/04/08 13:24:02;;;;;;;17.90;11.43;;;;;;;;;;4950685;28;20234;-69
2023/04/08 13:26:54;;;;;;;33.63;20.23;;;;;;;;;;4941771;28;20250;-68
2023/04/08 13:29:20;;;;;;;16.80;10.63;;;;;;;;;;4933438;28;20218;-70
2023/04/08 13:31:47;;;;;;;15.73;9.60;;;;;;;;;;4942021;28;20210;-69
2023/04/08 13:34:15;;;;;;;18.20;10.93;;;;;;;;;;4941622;28;20206;-69
2023/04/08 13:36:41;;;;;;;15.77;10.23;;;;;;;;;;4944363;28;20744;-69
2023/04/08 13:39:09;;;;;;;14.93;9.20;;;;;;;;;;4946923;28;20246;-70
2023/04/08 13:41:35;;;;;;;16.93;10.37;;;;;;;;;;4943885;28;20573;-70
2023/04/08 13:44:06;;;;;;;16.23;9.90;;;;;;;;;;4944172;28;20206;-69
2023/04/08 13:46:32;;;;;;;15.63;9.97;;;;;;;;;;4945591;28;20589;-70
2023/04/08 13:48:58;;;;;;;14.40;8.67;;;;;;;;;;4935158;28;20803;-70
2023/04/08 13:51:26;;;;;;;16.50;9.87;;;;;;;;;;4943850;28;20223;-70
2023/04/08 13:53:52;;;;;;;15.80;10.07;;;;;;;;;;4939479;28;20450;-69
2023/04/08 13:56:20;;;;;;;17.63;9.77;;;;;;;;;;4937911;28;20229;-70
2023/04/08 13:58:46;;;;;;;16.23;10.80;;;;;;;;;;4941473;28;20274;-70
2023/04/08 14:01:13;;;;;;;16.60;9.83;;;;;;;;;;4933372;28;20709;-70
2023/04/08 14:03:39;;;;;;;18.40;10.97;;;;;;;;;;4933152;28;20217;-70
2023/04/08 14:06:05;;;;;;;17.03;10.03;;;;;;;;;;4929770;28;20230;-68
2023/04/08 14:08:32;;;;;;;18.30;10.80;;;;;;;;;;4932771;28;20707;-69
2023/04/08 14:10:59;;;;;;;17.53;10.03;;;;;;;;;;4936643;28;20199;-68
2023/04/08 14:13:26;;;;;;;18.87;11.07;;;;;;;;;;4927594;28;20226;-68
2023/04/08 14:15:55;;;;;;;18.10;10.60;;;;;;;;;;4932987;28;20867;-69
2023/04/08 14:18:21;;;;;;;17.80;10.90;;;;;;;;;;4933671;28;20221;-69
2023/04/08 14:20:47;;;;;;;17.63;10.57;;;;;;;;;;4932292;28;20214;-69
2023/04/08 14:23:13;;;;;;;15.00;9.57;;;;;;;;;;4935063;28;20734;-69
2023/04/08 14:25:40;;;;;;;14.73;9.50;;;;;;;;;;4931686;28;20234;-69
2023/04/08 14:28:06;;;;;;;14.07;8.97;;;;;;;;;;4932441;28;20207;-69